sensor_id;sensor_type;location;lat;lon;timestamp;pressure;altitude;pressure_sealevel;temperature;humidity
75425;BME280;64007;50.632;13.700;2023-05-10T00:00:33;97654.88;;;8.72;83.62
75425;BME280;64007;50.632;13.700;2023-05-10T00:03:10;97656.56;;;8.73;84.75
75425;BME280;64007;50.632;13.700;2023-05-10T00:05:36;97658.28;;;8.63;87.58
75425;BME280;64007;50.632;13.700;2023-05-10T00:08:02;97652.72;;;8.66;86.95
75425;BME280;64007;50.632;13.700;2023-05-10T00:10:28;97646.47;;;8.67;84.88
75425;BME280;64007;50.632;13.700;2023-05-10T00:12:53;97646.94;;;8.61;87.45
75425;BME280;64007;50.632;13.700;2023-05-10T00:15:19;97646.47;;;8.56;89.46
75425;BME280;64007;50.632;13.700;2023-05-10T00:17:45;97636.59;;;8.58;87.59
75425;BME280;64007;50.632;13.700;2023-05-10T00:20:11;97646.59;;;8.55;86.76
75425;BME280;64007;50.632;13.700;2023-05-10T00:22:36;97638.28;;;8.48;88.33
75425;BME280;64007;50.632;13.700;2023-05-10T00:25:03;97638.03;;;8.40;91.48
75425;BME280;64007;50.632;13.700;2023-05-10T00:27:28;97633.41;;;8.31;89.41
75425;BME280;64007;50.632;13.700;2023-05-10T00:29:54;97642.09;;;8.33;91.17
75425;BME280;64007;50.632;13.700;2023-05-10T00:32:20;97633.66;;;8.28;91.53
75425;BME280;64007;50.632;13.700;2023-05-10T00:34:46;97634.63;;;8.27;91.94
75425;BME280;64007;50.632;13.700;2023-05-10T00:37:11;97628.59;;;8.25;91.42
75425;BME280;64007;50.632;13.700;2023-05-10T00:39:37;97625.47;;;8.20;92.18
75425;BME280;64007;50.632;13.700;2023-05-10T00:42:03;97621.00;;;8.20;92.59
75425;BME280;64007;50.632;13.700;2023-05-10T00:44:29;97631.59;;;8.20;92.03
75425;BME280;64007;50.632;13.700;2023-05-10T00:46:57;97620.41;;;8.16;91.99
75425;BME280;64007;50.632;13.700;2023-05-10T00:49:23;97620.53;;;8.15;91.53
75425;BME280;64007;50.632;13.700;2023-05-10T00:51:49;97620.03;;;8.10;91.56
75425;BME280;64007;50.632;13.700;2023-05-10T00:54:15;97619.94;;;8.11;90.34
75425;BME280;64007;50.632;13.700;2023-05-10T00:56:41;97609.69;;;8.07;92.24
75425;BME280;64007;50.632;13.700;2023-05-10T00:59:11;97616.78;;;8.06;91.72
75425;BME280;64007;50.632;13.700;2023-05-10T01:01:37;97617.75;;;8.05;91.15
75425;BME280;64007;50.632;13.700;2023-05-10T01:04:03;97599.47;;;8.02;91.44
75425;BME280;64007;50.632;13.700;2023-05-10T01:06:29;97603.28;;;7.98;92.57
75425;BME280;64007;50.632;13.700;2023-05-10T01:08:55;97608.09;;;7.93;94.73
75425;BME280;64007;50.632;13.700;2023-05-10T01:11:21;97608.31;;;7.90;93.57
75425;BME280;64007;50.632;13.700;2023-05-10T01:13:54;97604.81;;;7.90;95.90
75425;BME280;64007;50.632;13.700;2023-05-10T01:16:20;97612.16;;;7.86;96.03
75425;BME280;64007;50.632;13.700;2023-05-10T01:18:47;97604.94;;;7.88;96.39
75425;BME280;64007;50.632;13.700;2023-05-10T01:21:40;97602.19;;;7.90;92.32
75425;BME280;64007;50.632;13.700;2023-05-10T01:33:01;97604.44;;;7.72;95.99
75425;BME280;64007;50.632;13.700;2023-05-10T01:35:43;97603.00;;;7.68;97.21
75425;BME280;64007;50.632;13.700;2023-05-10T01:38:15;97600.06;;;7.60;96.98
75425;BME280;64007;50.632;13.700;2023-05-10T01:40:51;97600.50;;;7.53;98.74
75425;BME280;64007;50.632;13.700;2023-05-10T01:43:23;97595.47;;;7.50;97.26
75425;BME280;64007;50.632;13.700;2023-05-10T01:46:12;97596.91;;;7.54;97.71
75425;BME280;64007;50.632;13.700;2023-05-10T01:48:51;97601.81;;;7.48;97.54
75425;BME280;64007;50.632;13.700;2023-05-10T01:51:23;97604.69;;;7.45;97.62
75425;BME280;64007;50.632;13.700;2023-05-10T01:53:49;97597.59;;;7.45;97.13
75425;BME280;64007;50.632;13.700;2023-05-10T01:56:19;97605.06;;;7.40;97.49
75425;BME280;64007;50.632;13.700;2023-05-10T01:58:48;97597.47;;;7.36;98.83
75425;BME280;64007;50.632;13.700;2023-05-10T02:01:16;97603.81;;;7.33;97.38
75425;BME280;64007;50.632;13.700;2023-05-10T02:03:42;97602.53;;;7.39;98.45
75425;BME280;64007;50.632;13.700;2023-05-10T02:06:10;97604.44;;;7.37;97.23
75425;BME280;64007;50.632;13.700;2023-05-10T02:08:38;97595.78;;;7.35;100.00
75425;BME280;64007;50.632;13.700;2023-05-10T02:11:05;97600.34;;;7.33;99.34
75425;BME280;64007;50.632;13.700;2023-05-10T02:13:32;97598.53;;;7.33;98.97
75425;BME280;64007;50.632;13.700;2023-05-10T02:16:01;97591.78;;;7.29;99.00
75425;BME280;64007;50.632;13.700;2023-05-10T02:18:29;97597.34;;;7.37;97.23
75425;BME280;64007;50.632;13.700;2023-05-10T02:20:56;97597.06;;;7.29;96.40
75425;BME280;64007;50.632;13.700;2023-05-10T02:23:23;97594.19;;;7.32;96.70
75425;BME280;64007;50.632;13.700;2023-05-10T02:25:51;97595.41;;;7.28;97.24
75425;BME280;64007;50.632;13.700;2023-05-10T02:28:19;97601.63;;;7.27;98.37
75425;BME280;64007;50.632;13.700;2023-05-10T02:30:46;97596.00;;;7.32;98.35
75425;BME280;64007;50.632;13.700;2023-05-10T02:33:13;97590.94;;;7.29;96.37
75425;BME280;64007;50.632;13.700;2023-05-10T02:35:40;97591.78;;;7.29;97.28
75425;BME280;64007;50.632;13.700;2023-05-10T02:38:07;97590.34;;;7.25;100.00
75425;BME280;64007;50.632;13.700;2023-05-10T02:40:35;97592.84;;;7.27;99.75
75425;BME280;64007;50.632;13.700;2023-05-10T02:43:02;97589.06;;;7.18;98.58
75425;BME280;64007;50.632;13.700;2023-05-10T02:45:31;97586.22;;;7.21;97.91
75425;BME280;64007;50.632;13.700;2023-05-10T02:47:58;97592.63;;;7.30;97.79
75425;BME280;64007;50.632;13.700;2023-05-10T02:50:27;97592.97;;;7.25;97.83
75425;BME280;64007;50.632;13.700;2023-05-10T02:52:57;97588.78;;;7.34;95.90
75425;BME280;64007;50.632;13.700;2023-05-10T02:55:26;97583.34;;;7.24;98.92
75425;BME280;64007;50.632;13.700;2023-05-10T02:57:58;97586.97;;;7.23;98.82
75425;BME280;64007;50.632;13.700;2023-05-10T03:00:25;97578.06;;;7.24;100.00
75425;BME280;64007;50.632;13.700;2023-05-10T03:02:51;97578.56;;;7.29;96.72
75425;BME280;64007;50.632;13.700;2023-05-10T03:05:17;97574.47;;;7.25;98.21
75425;BME280;64007;50.632;13.700;2023-05-10T03:07:43;97578.31;;;7.21;97.67
75425;BME280;64007;50.632;13.700;2023-05-10T03:10:09;97580.03;;;7.33;94.94
75425;BME280;64007;50.632;13.700;2023-05-10T03:17:57;97597.06;;;7.29;98.69
75425;BME280;64007;50.632;13.700;2023-05-10T03:20:41;97594.56;;;7.28;100.00
75425;BME280;64007;50.632;13.700;2023-05-10T03:23:12;97594.06;;;7.22;99.54
75425;BME280;64007;50.632;13.700;2023-05-10T03:25:39;97594.91;;;7.23;99.68
75425;BME280;64007;50.632;13.700;2023-05-10T03:28:07;97593.72;;;7.27;99.67
75425;BME280;64007;50.632;13.700;2023-05-10T03:30:34;97590.75;;;7.19;100.00
75425;BME280;64007;50.632;13.700;2023-05-10T03:33:07;97592.97;;;7.25;100.00
75425;BME280;64007;50.632;13.700;2023-05-10T03:35:33;97589.81;;;7.20;100.00
75425;BME280;64007;50.632;13.700;2023-05-10T03:37:58;97592.56;;;7.18;99.04
75425;BME280;64007;50.632;13.700;2023-05-10T03:40:25;97588.53;;;7.26;98.64
75425;BME280;64007;50.632;13.700;2023-05-10T03:42:51;97593.34;;;7.32;100.00
75425;BME280;64007;50.632;13.700;2023-05-10T03:45:18;97588.41;;;7.27;99.12
75425;BME280;64007;50.632;13.700;2023-05-10T03:47:44;97587.22;;;7.31;100.00
75425;BME280;64007;50.632;13.700;2023-05-10T03:50:09;97585.81;;;7.38;99.98
75425;BME280;64007;50.632;13.700;2023-05-10T03:52:35;97593.88;;;7.48;97.27
75425;BME280;64007;50.632;13.700;2023-05-10T03:55:01;97592.31;;;7.45;100.00
75425;BME280;64007;50.632;13.700;2023-05-10T03:57:28;97591.97;;;7.50;100.00
75425;BME280;64007;50.632;13.700;2023-05-10T03:59:54;97586.31;;;7.54;96.49
75425;BME280;64007;50.632;13.700;2023-05-10T04:02:20;97585.91;;;7.61;96.00
75425;BME280;64007;50.632;13.700;2023-05-10T04:04:46;97584.94;;;7.62;99.66
75425;BME280;64007;50.632;13.700;2023-05-10T04:07:11;97589.03;;;7.66;98.24
75425;BME280;64007;50.632;13.700;2023-05-10T04:09:37;97594.09;;;7.69;96.52
75425;BME280;64007;50.632;13.700;2023-05-10T04:12:03;97589.31;;;7.85;89.24
75425;BME280;64007;50.632;13.700;2023-05-10T04:14:29;97588.81;;;7.91;89.42
75425;BME280;64007;50.632;13.700;2023-05-10T04:16:54;97582.81;;;8.00;91.62
75425;BME280;64007;50.632;13.700;2023-05-10T04:19:20;97592.47;;;8.12;90.90
75425;BME280;64007;50.632;13.700;2023-05-10T04:21:46;97590.69;;;8.13;93.08
75425;BME280;64007;50.632;13.700;2023-05-10T04:24:12;97595.38;;;8.21;90.21
75425;BME280;64007;50.632;13.700;2023-05-10T04:26:37;97593.56;;;8.32;88.00
75425;BME280;64007;50.632;13.700;2023-05-10T04:29:03;97593.47;;;8.34;88.27
75425;BME280;64007;50.632;13.700;2023-05-10T04:31:29;97595.63;;;8.40;89.52
75425;BME280;64007;50.632;13.700;2023-05-10T04:33:54;97599.16;;;8.52;88.01
75425;BME280;64007;50.632;13.700;2023-05-10T04:36:20;97597.81;;;8.57;84.37
75425;BME280;64007;50.632;13.700;2023-05-10T04:38:46;97598.16;;;8.64;84.48
75425;BME280;64007;50.632;13.700;2023-05-10T04:41:11;97597.78;;;8.79;80.93
75425;BME280;64007;50.632;13.700;2023-05-10T04:43:38;97588.38;;;8.87;80.58
75425;BME280;64007;50.632;13.700;2023-05-10T04:46:04;97593.44;;;8.90;80.91
75425;BME280;64007;50.632;13.700;2023-05-10T04:48:30;97587.88;;;8.93;80.88
75425;BME280;64007;50.632;13.700;2023-05-10T04:50:56;97584.59;;;9.00;80.07
75425;BME280;64007;50.632;13.700;2023-05-10T04:53:22;97584.19;;;9.16;78.38
75425;BME280;64007;50.632;13.700;2023-05-10T04:55:48;97591.53;;;9.24;77.53
75425;BME280;64007;50.632;13.700;2023-05-10T04:58:14;97592.59;;;9.32;77.03
75425;BME280;64007;50.632;13.700;2023-05-10T05:00:40;97596.91;;;9.33;75.95
75425;BME280;64007;50.632;13.700;2023-05-10T05:03:06;97589.88;;;9.43;75.43
75425;BME280;64007;50.632;13.700;2023-05-10T05:05:31;97588.91;;;9.45;75.02
75425;BME280;64007;50.632;13.700;2023-05-10T05:07:57;97592.97;;;9.49;75.42
75425;BME280;64007;50.632;13.700;2023-05-10T05:10:22;97586.72;;;9.50;74.80
75425;BME280;64007;50.632;13.700;2023-05-10T05:12:48;97594.38;;;9.64;75.46
75425;BME280;64007;50.632;13.700;2023-05-10T05:15:14;97598.59;;;9.66;74.83
75425;BME280;64007;50.632;13.700;2023-05-10T05:17:42;97589.41;;;9.70;73.87
75425;BME280;64007;50.632;13.700;2023-05-10T05:20:09;97586.78;;;9.80;74.34
75425;BME280;64007;50.632;13.700;2023-05-10T05:22:36;97590.63;;;9.87;73.99
75425;BME280;64007;50.632;13.700;2023-05-10T05:25:02;97589.13;;;9.94;73.53
75425;BME280;64007;50.632;13.700;2023-05-10T05:27:29;97588.97;;;9.96;73.39
75425;BME280;64007;50.632;13.700;2023-05-10T05:29:55;97586.91;;;9.99;72.59
75425;BME280;64007;50.632;13.700;2023-05-10T05:32:22;97591.00;;;10.03;73.53
75425;BME280;64007;50.632;13.700;2023-05-10T05:34:48;97588.81;;;10.09;73.07
75425;BME280;64007;50.632;13.700;2023-05-10T05:37:15;97588.28;;;10.15;73.30
75425;BME280;64007;50.632;13.700;2023-05-10T05:39:42;97594.63;;;10.23;73.82
75425;BME280;64007;50.632;13.700;2023-05-10T05:42:12;97586.00;;;10.31;72.89
75425;BME280;64007;50.632;13.700;2023-05-10T05:44:38;97585.72;;;10.34;72.10
75425;BME280;64007;50.632;13.700;2023-05-10T05:47:05;97583.41;;;10.41;72.65
75425;BME280;64007;50.632;13.700;2023-05-10T05:49:31;97581.63;;;10.51;75.12
75425;BME280;64007;50.632;13.700;2023-05-10T05:52:02;97579.97;;;10.59;74.42
75425;BME280;64007;50.632;13.700;2023-05-10T05:54:28;97581.09;;;10.66;73.17
75425;BME280;64007;50.632;13.700;2023-05-10T05:56:57;97584.63;;;10.77;71.65
75425;BME280;64007;50.632;13.700;2023-05-10T05:59:22;97585.53;;;10.87;72.22
75425;BME280;64007;50.632;13.700;2023-05-10T06:01:49;97577.13;;;10.91;69.94
75425;BME280;64007;50.632;13.700;2023-05-10T06:04:15;97589.19;;;11.05;71.16
75425;BME280;64007;50.632;13.700;2023-05-10T06:06:41;97590.22;;;11.23;69.35
75425;BME280;64007;50.632;13.700;2023-05-10T06:09:08;97588.78;;;11.19;71.29
75425;BME280;64007;50.632;13.700;2023-05-10T06:11:34;97594.28;;;11.27;70.18
75425;BME280;64007;50.632;13.700;2023-05-10T06:14:00;97588.13;;;11.37;71.13
75425;BME280;64007;50.632;13.700;2023-05-10T06:16:27;97591.75;;;11.45;68.80
75425;BME280;64007;50.632;13.700;2023-05-10T06:18:53;97590.63;;;11.48;69.68
75425;BME280;64007;50.632;13.700;2023-05-10T06:21:19;97585.31;;;11.48;69.03
75425;BME280;64007;50.632;13.700;2023-05-10T06:23:44;97578.72;;;11.52;70.73
75425;BME280;64007;50.632;13.700;2023-05-10T06:26:11;97587.28;;;11.65;72.51
75425;BME280;64007;50.632;13.700;2023-05-10T06:28:37;97583.91;;;11.73;69.62
75425;BME280;64007;50.632;13.700;2023-05-10T06:31:06;97576.91;;;11.81;68.09
75425;BME280;64007;50.632;13.700;2023-05-10T06:33:33;97578.59;;;11.82;67.67
75425;BME280;64007;50.632;13.700;2023-05-10T06:35:59;97576.75;;;11.92;66.28
75425;BME280;64007;50.632;13.700;2023-05-10T06:38:25;97572.38;;;12.11;65.47
75425;BME280;64007;50.632;13.700;2023-05-10T06:40:51;97580.66;;;12.08;66.14
75425;BME280;64007;50.632;13.700;2023-05-10T06:43:17;97575.72;;;12.13;68.97
75425;BME280;64007;50.632;13.700;2023-05-10T06:45:43;97570.72;;;12.37;66.50
75425;BME280;64007;50.632;13.700;2023-05-10T06:48:09;97575.38;;;12.35;64.40
75425;BME280;64007;50.632;13.700;2023-05-10T06:50:35;97574.50;;;12.44;65.08
75425;BME280;64007;50.632;13.700;2023-05-10T06:53:01;97577.28;;;12.52;66.86
75425;BME280;64007;50.632;13.700;2023-05-10T06:55:29;97564.94;;;12.51;66.85
75425;BME280;64007;50.632;13.700;2023-05-10T06:57:55;97566.91;;;12.49;64.60
75425;BME280;64007;50.632;13.700;2023-05-10T07:00:21;97567.47;;;12.53;64.67
75425;BME280;64007;50.632;13.700;2023-05-10T07:02:47;97571.25;;;12.78;67.72
75425;BME280;64007;50.632;13.700;2023-05-10T07:05:13;97575.34;;;13.00;64.80
75425;BME280;64007;50.632;13.700;2023-05-10T07:07:39;97575.66;;;12.97;66.31
75425;BME280;64007;50.632;13.700;2023-05-10T07:10:05;97571.63;;;13.10;64.73
75425;BME280;64007;50.632;13.700;2023-05-10T07:12:32;97568.28;;;13.08;64.04
75425;BME280;64007;50.632;13.700;2023-05-10T07:14:58;97569.41;;;13.06;62.63
75425;BME280;64007;50.632;13.700;2023-05-10T07:17:24;97569.06;;;13.18;64.38
75425;BME280;64007;50.632;13.700;2023-05-10T07:19:49;97572.91;;;13.34;63.00
75425;BME280;64007;50.632;13.700;2023-05-10T07:22:15;97574.81;;;13.41;61.38
75425;BME280;64007;50.632;13.700;2023-05-10T07:24:48;97567.78;;;13.40;62.62
75425;BME280;64007;50.632;13.700;2023-05-10T07:27:57;97574.28;;;13.73;64.27
75425;BME280;64007;50.632;13.700;2023-05-10T07:30:25;97569.56;;;13.67;63.75
75425;BME280;64007;50.632;13.700;2023-05-10T07:32:51;97563.28;;;13.76;65.36
75425;BME280;64007;50.632;13.700;2023-05-10T07:35:18;97567.31;;;13.80;64.31
75425;BME280;64007;50.632;13.700;2023-05-10T07:37:45;97571.63;;;13.99;62.42
75425;BME280;64007;50.632;13.700;2023-05-10T07:40:11;97566.44;;;13.98;62.21
75425;BME280;64007;50.632;13.700;2023-05-10T07:42:36;97566.88;;;14.11;62.92
75425;BME280;64007;50.632;13.700;2023-05-10T07:45:02;97567.09;;;14.18;61.15
75425;BME280;64007;50.632;13.700;2023-05-10T07:47:28;97566.25;;;14.17;56.50
75425;BME280;64007;50.632;13.700;2023-05-10T07:49:54;97567.59;;;14.21;61.46
75425;BME280;64007;50.632;13.700;2023-05-10T07:52:19;97555.94;;;14.30;61.56
75425;BME280;64007;50.632;13.700;2023-05-10T07:54:49;97563.81;;;14.32;58.52
75425;BME280;64007;50.632;13.700;2023-05-10T07:57:15;97555.00;;;14.39;60.93
75425;BME280;64007;50.632;13.700;2023-05-10T07:59:43;97563.63;;;14.25;59.11
75425;BME280;64007;50.632;13.700;2023-05-10T08:02:09;97559.94;;;14.26;58.90
75425;BME280;64007;50.632;13.700;2023-05-10T08:04:35;97562.00;;;14.58;61.38
75425;BME280;64007;50.632;13.700;2023-05-10T08:07:01;97561.66;;;14.61;61.48
75425;BME280;64007;50.632;13.700;2023-05-10T08:09:27;97559.50;;;14.65;57.38
75425;BME280;64007;50.632;13.700;2023-05-10T08:11:52;97560.16;;;14.59;57.54
75425;BME280;64007;50.632;13.700;2023-05-10T08:14:18;97554.75;;;14.85;64.23
75425;BME280;64007;50.632;13.700;2023-05-10T08:16:44;97558.59;;;14.82;56.05
75425;BME280;64007;50.632;13.700;2023-05-10T08:19:09;97556.88;;;14.73;56.02
75425;BME280;64007;50.632;13.700;2023-05-10T08:21:35;97563.56;;;14.77;55.35
75425;BME280;64007;50.632;13.700;2023-05-10T08:24:01;97562.41;;;14.80;55.87
75425;BME280;64007;50.632;13.700;2023-05-10T08:26:27;97560.63;;;14.88;56.98
75425;BME280;64007;50.632;13.700;2023-05-10T08:28:53;97562.28;;;14.89;59.50
75425;BME280;64007;50.632;13.700;2023-05-10T08:31:18;97566.84;;;14.97;58.90
75425;BME280;64007;50.632;13.700;2023-05-10T08:33:44;97569.72;;;15.12;56.44
75425;BME280;64007;50.632;13.700;2023-05-10T08:36:10;97574.69;;;14.98;56.63
75425;BME280;64007;50.632;13.700;2023-05-10T08:38:37;97579.44;;;15.21;60.78
75425;BME280;64007;50.632;13.700;2023-05-10T08:41:03;97578.56;;;15.62;60.85
75425;BME280;64007;50.632;13.700;2023-05-10T08:43:30;97570.03;;;15.67;55.67
75425;BME280;64007;50.632;13.700;2023-05-10T08:46:00;97575.22;;;15.69;58.49
75425;BME280;64007;50.632;13.700;2023-05-10T08:48:29;97583.91;;;15.87;60.92
75425;BME280;64007;50.632;13.700;2023-05-10T08:50:58;97577.84;;;16.25;59.92
75425;BME280;64007;50.632;13.700;2023-05-10T08:53:26;97575.00;;;16.27;54.16
75425;BME280;64007;50.632;13.700;2023-05-10T08:55:53;97578.56;;;16.03;54.13
75425;BME280;64007;50.632;13.700;2023-05-10T08:58:19;97585.59;;;15.88;51.47
75425;BME280;64007;50.632;13.700;2023-05-10T09:00:48;97587.28;;;15.89;53.75
75425;BME280;64007;50.632;13.700;2023-05-10T09:03:14;97581.25;;;16.03;55.44
75425;BME280;64007;50.632;13.700;2023-05-10T09:05:40;97578.88;;;16.16;58.07
75425;BME280;64007;50.632;13.700;2023-05-10T09:08:08;97570.81;;;16.24;54.06
75425;BME280;64007;50.632;13.700;2023-05-10T09:10:34;97571.78;;;16.40;53.14
75425;BME280;64007;50.632;13.700;2023-05-10T09:13:00;97575.63;;;16.53;51.55
75425;BME280;64007;50.632;13.700;2023-05-10T09:15:27;97580.94;;;16.78;52.75
75425;BME280;64007;50.632;13.700;2023-05-10T09:17:54;97577.00;;;16.97;58.65
75425;BME280;64007;50.632;13.700;2023-05-10T09:20:19;97580.50;;;17.05;55.10
75425;BME280;64007;50.632;13.700;2023-05-10T09:22:46;97586.13;;;17.18;54.50
75425;BME280;64007;50.632;13.700;2023-05-10T09:25:16;97595.41;;;17.08;48.84
75425;BME280;64007;50.632;13.700;2023-05-10T09:27:46;97585.72;;;16.99;52.38
75425;BME280;64007;50.632;13.700;2023-05-10T09:30:16;97576.00;;;16.98;50.29
75425;BME280;64007;50.632;13.700;2023-05-10T09:32:47;97575.94;;;17.06;52.41
75425;BME280;64007;50.632;13.700;2023-05-10T09:35:16;97581.25;;;17.22;56.15
75425;BME280;64007;50.632;13.700;2023-05-10T09:37:45;97581.63;;;17.42;55.66
75425;BME280;64007;50.632;13.700;2023-05-10T09:40:13;97581.03;;;17.54;57.27
75425;BME280;64007;50.632;13.700;2023-05-10T09:43:02;97577.81;;;17.67;55.90
75425;BME280;64007;50.632;13.700;2023-05-10T09:45:31;97581.66;;;17.65;52.45
75425;BME280;64007;50.632;13.700;2023-05-10T09:47:57;97585.53;;;17.70;51.38
75425;BME280;64007;50.632;13.700;2023-05-10T09:50:24;97578.94;;;17.73;47.83
75425;BME280;64007;50.632;13.700;2023-05-10T09:52:53;97570.81;;;17.81;48.84
75425;BME280;64007;50.632;13.700;2023-05-10T09:55:23;97580.84;;;17.87;48.62
75425;BME280;64007;50.632;13.700;2023-05-10T09:57:58;97577.00;;;18.04;50.94
75425;BME280;64007;50.632;13.700;2023-05-10T10:00:24;97574.59;;;18.09;49.88
75425;BME280;64007;50.632;13.700;2023-05-10T10:02:58;97568.13;;;18.19;49.28
75425;BME280;64007;50.632;13.700;2023-05-10T10:05:34;97570.28;;;18.23;52.50
75425;BME280;64007;50.632;13.700;2023-05-10T10:08:02;97573.19;;;18.51;54.01
75425;BME280;64007;50.632;13.700;2023-05-10T10:10:28;97567.47;;;18.69;55.79
75425;BME280;64007;50.632;13.700;2023-05-10T10:12:55;97574.69;;;18.54;47.07
75425;BME280;64007;50.632;13.700;2023-05-10T10:15:21;97560.91;;;18.34;48.79
75425;BME280;64007;50.632;13.700;2023-05-10T10:17:49;97559.81;;;18.43;50.58
75425;BME280;64007;50.632;13.700;2023-05-10T10:20:15;97554.25;;;18.59;50.96
75425;BME280;64007;50.632;13.700;2023-05-10T10:22:41;97567.66;;;18.67;48.75
75425;BME280;64007;50.632;13.700;2023-05-10T10:25:10;97558.91;;;18.65;51.38
75425;BME280;64007;50.632;13.700;2023-05-10T10:35:36;97566.19;;;19.52;49.62
75425;BME280;64007;50.632;13.700;2023-05-10T10:38:02;97569.72;;;19.67;50.12
75425;BME280;64007;50.632;13.700;2023-05-10T10:40:30;97569.09;;;19.65;49.86
75425;BME280;64007;50.632;13.700;2023-05-10T10:42:57;97561.09;;;19.99;51.27
75425;BME280;64007;50.632;13.700;2023-05-10T10:45:24;97565.09;;;20.03;45.54
75425;BME280;64007;50.632;13.700;2023-05-10T10:48:20;97565.72;;;20.33;45.45
75425;BME280;64007;50.632;13.700;2023-05-10T10:50:46;97563.84;;;20.34;49.32
75425;BME280;64007;50.632;13.700;2023-05-10T10:53:12;97563.56;;;20.22;48.31
75425;BME280;64007;50.632;13.700;2023-05-10T10:55:46;97568.81;;;20.52;51.50
75425;BME280;64007;50.632;13.700;2023-05-10T10:58:29;97576.88;;;20.80;49.40
75425;BME280;64007;50.632;13.700;2023-05-10T11:03:38;97564.72;;;20.97;42.65
75425;BME280;64007;50.632;13.700;2023-05-10T11:06:04;97565.75;;;20.96;50.59
75425;BME280;64007;50.632;13.700;2023-05-10T11:08:31;97561.13;;;20.83;45.42
75425;BME280;64007;50.632;13.700;2023-05-10T11:13:37;97553.63;;;21.26;47.00
75425;BME280;64007;50.632;13.700;2023-05-10T11:18:38;97560.56;;;21.49;43.38
75425;BME280;64007;50.632;13.700;2023-05-10T11:21:03;97550.00;;;22.00;45.76
75425;BME280;64007;50.632;13.700;2023-05-10T11:23:54;97550.69;;;22.15;41.64
75425;BME280;64007;50.632;13.700;2023-05-10T11:26:34;97547.16;;;22.15;45.63
75425;BME280;64007;50.632;13.700;2023-05-10T11:29:00;97553.81;;;22.26;45.54
75425;BME280;64007;50.632;13.700;2023-05-10T11:33:54;97554.88;;;23.16;42.79
75425;BME280;64007;50.632;13.700;2023-05-10T11:36:25;97549.13;;;23.43;38.52
75425;BME280;64007;50.632;13.700;2023-05-10T11:38:51;97545.88;;;23.98;38.92
75425;BME280;64007;50.632;13.700;2023-05-10T11:41:19;97552.34;;;23.72;36.25
75425;BME280;64007;50.632;13.700;2023-05-10T11:43:49;97540.72;;;23.58;36.87
75425;BME280;64007;50.632;13.700;2023-05-10T11:46:16;97550.28;;;23.67;39.85
75425;BME280;64007;50.632;13.700;2023-05-10T11:48:44;97547.97;;;23.20;40.32
75425;BME280;64007;50.632;13.700;2023-05-10T11:51:11;97550.19;;;22.91;41.35
75425;BME280;64007;50.632;13.700;2023-05-10T11:53:37;97549.56;;;22.89;44.48
75425;BME280;64007;50.632;13.700;2023-05-10T11:58:31;97538.09;;;22.74;41.92
75425;BME280;64007;50.632;13.700;2023-05-10T12:00:57;97551.50;;;22.56;43.42
75425;BME280;64007;50.632;13.700;2023-05-10T12:03:24;97551.72;;;22.21;42.47
75425;BME280;64007;50.632;13.700;2023-05-10T12:05:50;97556.53;;;22.12;42.62
75425;BME280;64007;50.632;13.700;2023-05-10T12:08:23;97560.47;;;22.43;43.71
75425;BME280;64007;50.632;13.700;2023-05-10T12:10:50;97549.72;;;23.07;41.78
75425;BME280;64007;50.632;13.700;2023-05-10T12:13:17;97543.66;;;23.50;39.58
75425;BME280;64007;50.632;13.700;2023-05-10T12:15:43;97552.97;;;23.29;40.64
75425;BME280;64007;50.632;13.700;2023-05-10T12:18:10;97551.56;;;23.13;40.08
75425;BME280;64007;50.632;13.700;2023-05-10T12:20:37;97545.66;;;22.59;42.91
75425;BME280;64007;50.632;13.700;2023-05-10T12:23:03;97550.66;;;22.35;43.03
75425;BME280;64007;50.632;13.700;2023-05-10T12:25:34;97554.38;;;22.74;42.30
75425;BME280;64007;50.632;13.700;2023-05-10T12:28:03;97556.94;;;23.27;39.62
75425;BME280;64007;50.632;13.700;2023-05-10T12:30:32;97555.63;;;23.81;42.07
75425;BME280;64007;50.632;13.700;2023-05-10T12:33:09;97547.59;;;23.92;39.00
75425;BME280;64007;50.632;13.700;2023-05-10T12:35:46;97550.47;;;23.28;37.21
75425;BME280;64007;50.632;13.700;2023-05-10T12:41:22;97547.53;;;23.99;35.79
75425;BME280;64007;50.632;13.700;2023-05-10T12:43:48;97553.66;;;24.19;37.85
75425;BME280;64007;50.632;13.700;2023-05-10T12:46:16;97548.59;;;24.29;35.44
75425;BME280;64007;50.632;13.700;2023-05-10T12:48:43;97546.88;;;25.33;34.70
75425;BME280;64007;50.632;13.700;2023-05-10T12:51:09;97557.41;;;25.78;32.95
75425;BME280;64007;50.632;13.700;2023-05-10T12:53:38;97549.00;;;25.13;34.58
75425;BME280;64007;50.632;13.700;2023-05-10T12:56:04;97553.88;;;24.67;36.80
75425;BME280;64007;50.632;13.700;2023-05-10T12:58:30;97554.41;;;24.08;35.83
75425;BME280;64007;50.632;13.700;2023-05-10T13:00:57;97552.47;;;23.84;35.72
75425;BME280;64007;50.632;13.700;2023-05-10T13:03:23;97557.19;;;23.95;36.18
75425;BME280;64007;50.632;13.700;2023-05-10T13:05:49;97557.28;;;24.13;35.90
75425;BME280;64007;50.632;13.700;2023-05-10T13:08:15;97557.56;;;24.05;38.19
75425;BME280;64007;50.632;13.700;2023-05-10T13:10:41;97551.34;;;24.23;37.51
75425;BME280;64007;50.632;13.700;2023-05-10T13:13:07;97552.63;;;24.20;35.09
75425;BME280;64007;50.632;13.700;2023-05-10T13:15:35;97546.63;;;24.12;36.43
75425;BME280;64007;50.632;13.700;2023-05-10T13:18:01;97542.16;;;23.61;38.21
75425;BME280;64007;50.632;13.700;2023-05-10T13:20:27;97549.41;;;23.73;37.49
75425;BME280;64007;50.632;13.700;2023-05-10T13:22:53;97547.81;;;23.91;35.05
75425;BME280;64007;50.632;13.700;2023-05-10T13:25:19;97539.47;;;24.17;36.34
75425;BME280;64007;50.632;13.700;2023-05-10T13:27:45;97541.34;;;23.92;36.54
75425;BME280;64007;50.632;13.700;2023-05-10T13:30:11;97542.31;;;23.72;37.63
75425;BME280;64007;50.632;13.700;2023-05-10T13:32:37;97540.41;;;23.35;36.87